Latest Weather Observations for Mount Buller

IDV60801

Issued at 4:32 am EDT Wednesday 13 December 2017 (issued every 30 minutes, with the page automatically refreshed every 10 minutes)

About weather observations | Map of weather stations | Latest weather observations for VIC | Other Formats
Station Details ID: 083024 Name: MOUNT BULLER Lat: -37.15 Lon: 146.44 Height: 1707.0 m
Data from the previous 72 hours. | See also: Recent months at Mount Buller
Date/Time
EDT
Temp
°C
App
Temp
°C
Dew
Point
°C
Rel
Hum
%
Delta-T
°C
Wind Press
QNH
hPa
Press
MSL
hPa
Rain since
9am
mm
Dir  Spd
km/h
Gust
km/h
Spd
kts
Gust
kts
13/04:30am 13.3 11.1 -1.8 35 6.7 CALM 0 0 0 0 - - -
13/04:00am 13.1 11.0 -0.9 38 6.3 CALM 0 0 0 0 - - -
13/03:30am 12.7 - -2.0 36 6.4 - - - - - - - -
13/03:00am 13.1 - -1.6 36 6.5 - - - - - - - 0.0
13/02:30am 12.6 - -1.7 37 6.3 - - - - - - - -
13/02:00am 13.0 - -2.9 33 6.9 - - - - - - - -
13/01:30am 13.6 - -1.6 35 6.8 - - - - - - - -
13/01:00am 12.1 - 0.8 46 5.2 - - - - - - - -
13/12:30am 12.2 - 0.3 44 5.5 - - - - - - - -
13/12:00am 11.8 - 0.6 46 5.2 - - - - - - - -
 
Date/Time
EDT
Temp
°C
App
Temp
°C
Dew
Point
°C
Rel
Hum
%
Delta-T
°C
Wind Press
QNH
hPa
Press
MSL
hPa
Rain since
9am
mm
Dir  Spd
km/h
Gust
km/h
Spd
kts
Gust
kts
12/11:30pm 13.3 - 0.7 42 5.9 - - - - - - - -
12/11:00pm 13.2 - 1.2 44 5.7 - - - - - - - -
12/10:30pm 12.1 - 0.2 44 5.4 - - - - - - - -
12/10:00pm 12.3 - -0.2 42 5.7 - - - - - - - -
12/09:30pm 12.6 - -0.6 40 6.0 - - - - - - - -
12/09:00pm 13.5 - -0.5 38 6.4 - - - - - - - 0.0
12/08:30pm 13.9 - -0.2 38 6.5 - - - - - - - -
12/08:00pm 14.9 - 0.4 37 6.8 - - - - - - - -
12/07:30pm 16.4 - 0.5 34 7.6 - - - - - - - -
12/07:00pm 17.2 - 2.4 37 7.4 - - - - - - - -
12/06:30pm 18.1 - 3.2 37 7.6 - - - - - - - -
12/06:00pm 17.6 - 2.4 36 7.6 - - - - - - - -
12/05:30pm 17.8 - -0.5 29 8.6 - - - - - - - -
12/05:00pm 18.0 - 1.1 32 8.3 - - - - - - - -
12/04:30pm 17.9 - 2.6 36 7.7 - - - - - - - -
12/04:00pm 17.1 - 1.5 35 7.6 - - - - - - - -
12/03:30pm 18.3 - 0.4 30 8.6 - - - - - - - -
12/03:00pm 18.5 - 1.9 33 8.3 - - - - - - - 0.0
12/02:30pm 17.7 - 5.3 44 6.6 - - - - - - - -
12/02:00pm 17.2 - 5.8 47 6.1 - - - - - - - -
12/01:30pm 16.6 - 6.7 52 5.3 - - - - - - - -
12/01:00pm 16.5 - 6.9 53 5.2 - - - - - - - -
12/12:30pm 15.8 - 7.1 56 4.7 - - - - - - - -
12/12:00pm 16.3 - 7.3 55 4.9 - - - - - - - -
12/11:30am 16.0 - 1.7 38 7.0 - - - - - - - -
12/11:00am 16.6 - 0.7 34 7.6 - - - - - - - -
12/10:30am 15.8 - -7.7 19 9.4 - - - - - - - -
12/10:00am 15.7 - -7.8 19 9.4 - - - - - - - -
12/09:30am 15.1 - -5.3 24 8.5 - - - - - - - -
12/09:00am 15.0 - -5.4 24 8.5 - - - - - - - 0.0
12/08:30am 14.6 - -3.7 28 7.9 - - - - - - - -
12/08:00am 14.1 - -7.9 21 8.6 - - - - - - - -
12/07:30am 13.8 - -8.1 21 8.5 - - - - - - - -
12/07:00am 12.7 - -10.3 19 8.4 - - - - - - - -
12/06:30am 11.3 - -7.0 27 7.1 - - - - - - - -
12/06:00am 11.1 - -6.7 28 6.9 - - - - - - - -
12/05:30am 11.7 - -7.6 25 7.4 - - - - - - - -
12/05:00am 11.3 - -7.5 26 7.2 - - - - - - - -
12/04:30am 12.4 - -9.3 21 8.1 - - - - - - - -
12/04:00am 11.9 - -8.5 23 7.7 - - - - - - - -
12/03:30am 12.7 - -7.9 23 7.9 - - - - - - - -
12/03:00am 11.7 - -7.1 26 7.3 - - - - - - - 0.0
12/02:30am 11.7 - -7.6 25 7.4 - - - - - - - -
12/02:00am 11.9 - -5.5 29 7.0 - - - - - - - -
12/01:30am 11.8 - -1.0 41 5.7 - - - - - - - -
12/01:00am 11.2 - 1.2 50 4.6 - - - - - - - -
12/12:30am 11.7 - 1.9 51 4.6 - - - - - - - -
12/12:00am 11.9 - 1.5 49 4.9 - - - - - - - -
 
Date/Time
EDT
Temp
°C
App
Temp
°C
Dew
Point
°C
Rel
Hum
%
Delta-T
°C
Wind Press
QNH
hPa
Press
MSL
hPa
Rain since
9am
mm
Dir  Spd
km/h
Gust
km/h
Spd
kts
Gust
kts
11/11:30pm 12.1 - 2.3 51 4.7 - - - - - - - -
11/11:00pm 12.3 - 2.7 52 4.6 - - - - - - - -
11/10:30pm 11.5 - 3.0 56 4.1 - - - - - - - -
11/10:00pm 12.9 - 3.0 51 4.8 - - - - - - - -
11/09:30pm 11.7 - 5.8 67 3.0 - - - - - - - -
11/09:00pm 11.7 - 6.6 71 2.7 - - - - - - - 0.0
11/08:30pm 12.1 - 5.9 66 3.2 - - - - - - - -
11/08:00pm 14.1 - 3.3 48 5.4 - - - - - - - -
11/07:30pm 15.3 - 2.8 43 6.2 - - - - - - - -
11/07:00pm 16.4 - 1.7 37 7.2 - - - - - - - -
11/06:30pm 16.9 - 2.9 39 7.0 - - - - - - - -
11/06:00pm 16.8 - 1.3 35 7.5 - - - - - - - -
11/05:30pm 17.5 - 0.2 31 8.3 - - - - - - - -
11/05:00pm 17.9 - -0.8 28 8.8 - - - - - - - -
11/04:30pm 17.1 - -0.6 30 8.3 - - - - - - - -
11/04:00pm 17.7 - 2.5 36 7.6 - - - - - - - -
11/03:30pm 17.3 - 0.0 31 8.2 - - - - - - - -
11/03:00pm 16.0 - -3.0 27 8.4 - - - - - - - 0.0
11/02:30pm 17.0 - -2.1 27 8.7 - - - - - - - -
11/02:00pm 15.9 - -1.6 30 8.0 - - - - - - - -
11/01:30pm 16.0 - -0.2 33 7.6 - - - - - - - -
11/01:00pm 15.8 - -0.8 32 7.7 - - - - - - - -
11/12:30pm 16.1 - -0.6 32 7.8 - - - - - - - -
11/12:00pm 15.4 - -3.0 28 8.1 - - - - - - - -
11/11:30am 14.9 - -2.5 30 7.7 - - - - - - - -
11/11:00am 15.6 - -0.6 33 7.5 - - - - - - - -
11/10:30am 15.4 - -4.5 25 8.5 - - - - - - - -
11/10:00am 14.6 - -5.2 25 8.3 - - - - - - - -
11/09:30am 14.0 - -11.4 16 9.2 - - - - - - - -
11/09:00am 14.3 - -9.0 19 8.9 - - - - - - - 0.0
11/08:30am 14.4 - -7.6 21 8.7 - - - - - - - -
11/08:00am 13.0 - -8.2 22 8.1 - - - - - - - -
11/07:30am 12.3 - -8.2 23 7.8 - - - - - - - -
11/07:00am 11.2 - -7.6 26 7.2 - - - - - - - -
11/06:30am 10.1 - -7.1 29 6.5 - - - - - - - -
11/06:00am 9.9 - -9.2 25 6.9 - - - - - - - -
11/05:30am 9.6 - -11.0 22 7.1 - - - - - - - -
11/05:00am 9.3 - -8.7 27 6.5 - - - - - - - -
11/04:30am 9.0 - -3.5 41 5.1 - - - - - - - -
11/04:00am 9.4 - -4.9 36 5.7 - - - - - - - -
11/03:30am 8.1 - -2.8 46 4.5 - - - - - - - -
11/03:00am 10.1 - -3.9 37 5.7 - - - - - - - 0.0
11/02:30am 10.6 - -2.4 40 5.5 - - - - - - - -
11/02:00am 10.8 - -1.9 41 5.5 - - - - - - - -
11/01:30am 11.1 - 1.1 50 4.6 - - - - - - - -
11/01:00am 10.4 - 0.4 50 4.5 - - - - - - - -
11/12:30am 10.0 - 0.1 50 4.4 - - - - - - - -
11/12:00am 10.7 - 0.4 49 4.7 - - - - - - - -
 
Date/Time
EDT
Temp
°C
App
Temp
°C
Dew
Point
°C
Rel
Hum
%
Delta-T
°C
Wind Press
QNH
hPa
Press
MSL
hPa
Rain since
9am
mm
Dir  Spd
km/h
Gust
km/h
Spd
kts
Gust
kts
10/11:30pm 10.8 - 2.9 58 3.8 - - - - - - - -
10/11:00pm 9.9 - 3.6 65 3.1 - - - - - - - -
10/10:30pm 10.1 - 5.5 73 2.3 - - - - - - - -
10/10:00pm 10.1 - 4.3 67 2.9 - - - - - - - -
10/09:30pm 10.7 - 3.7 62 3.4 - - - - - - - -
10/09:00pm 10.2 - 3.3 62 3.3 - - - - - - - 0.0
10/08:30pm 10.9 - 2.5 56 4.0 - - - - - - - -
10/08:00pm 12.1 - 4.1 58 4.0 - - - - - - - -
10/07:30pm 13.6 - 3.9 52 4.9 - - - - - - - -
10/07:00pm 15.2 - 4.3 48 5.6 - - - - - - - -
10/06:30pm 15.5 - 3.0 43 6.2 - - - - - - - -
10/06:00pm 15.5 - 3.0 43 6.2 - - - - - - - -
10/05:30pm 14.9 - 2.8 44 6.0 - - - - - - - -
10/05:00pm 15.4 - 6.2 54 4.9 - - - - - - - -
10/04:30pm 15.8 - 6.0 52 5.2 - - - - - - - -
10/04:00pm 15.9 - 6.6 54 5.0 - - - - - - - -
10/03:30pm 16.3 - 5.9 50 5.5 - - - - - - - -
10/03:00pm 15.6 - 4.6 48 5.7 - - - - - - - 0.0
10/02:30pm 15.1 - 5.9 54 4.8 - - - - - - - -
10/02:00pm 14.9 - 6.7 58 4.4 - - - - - - - -
10/01:30pm 14.6 - 6.9 60 4.1 - - - - - - - -
10/01:00pm 14.2 - 7.0 62 3.9 - - - - - - - -
10/12:30pm 14.4 - 8.1 66 3.4 - - - - - - - -
10/12:00pm 14.4 - 6.3 58 4.3 - - - - - - - -
10/11:30am 13.7 - 5.8 59 4.1 - - - - - - - -
10/11:00am 13.8 - 5.9 59 4.1 - - - - - - - -
10/10:30am 13.5 - 5.7 59 4.0 - - - - - - - -
10/10:00am 13.0 - 5.2 59 4.0 - - - - - - - -
10/09:30am 13.1 - 6.7 65 3.4 - - - - - - - -
10/09:00am 13.1 - 6.2 63 3.6 - - - - - - - 0.0
10/08:30am 12.3 - 5.5 63 3.5 - - - - - - - -
10/08:00am 12.3 - 3.8 56 4.2 - - - - - - - -
10/07:30am 11.9 - 3.4 56 4.2 - - - - - - - -
10/07:00am 11.3 - 2.9 56 4.0 - - - - - - - -
10/06:30am 11.1 - 2.2 54 4.2 - - - - - - - -
10/06:00am 11.0 - 2.1 54 4.2 - - - - - - - -
10/05:30am 10.5 - 2.4 57 3.8 - - - - - - - -
10/05:00am 10.7 - 2.3 56 4.0 - - - - - - - -

Other Formats:

Comma delimited format used in spreadsheet applications
http://www.bom.gov.au/fwo/IDV60801/IDV60801.94894.axf

JavaScript Object Notation format (JSON) in row-major order
http://www.bom.gov.au/fwo/IDV60801/IDV60801.94894.json